Time;durP1;ratioP1;P1;durP2;ratioP2;P2;SDS_P1;SDS_P2;PMS_P1;PMS_P2;Temp;Humidity;BMP_temperature;BMP_pressure;BME280_temperature;BME280_humidity;BME280_pressure;Samples;Min_cycle;Max_cycle;Signal;HPM_P1;HPM_P2
2021/11/20 00:01:39;;;;;;;4.03;1.60;;;;;;;11.85;86.23;100381.98;1652302;86;26796;-80
2021/11/20 00:04:08;;;;;;;8.95;2.55;;;;;;;11.85;86.42;100381.14;1657892;85;25950;-80
2021/11/20 00:06:40;;;;;;;7.65;2.45;;;;;;;11.86;86.33;100389.52;1630567;85;25677;-79
2021/11/20 00:09:11;;;;;;;7.17;1.90;;;;;;;11.87;86.45;100409.98;1623050;86;26438;-80
2021/11/20 00:11:41;;;;;;;4.35;1.65;;;;;;;11.87;86.19;100411.32;1638962;86;25903;-79
2021/11/20 00:14:10;;;;;;;7.93;2.17;;;;;;;11.88;85.97;100425.04;1606096;86;27393;-80
2021/11/20 00:16:41;;;;;;;7.37;2.40;;;;;;;11.87;86.18;100407.30;1580234;86;25965;-79
2021/11/20 00:19:09;;;;;;;4.73;1.90;;;;;;;11.87;86.15;100402.73;1611941;86;25866;-79
2021/11/20 00:25:31;;;;;;;6.45;2.02;;;;;;;11.86;85.73;100392.20;1615868;86;25807;-79
2021/11/20 00:28:00;;;;;;;5.65;2.05;;;;;;;11.85;85.73;100414.69;1619806;86;28157;-79
2021/11/20 00:30:41;;;;;;;5.00;2.12;;;;;;;11.85;85.20;100412.00;1628108;87;25909;-79
2021/11/20 00:33:07;;;;;;;6.90;1.92;;;;;;;11.86;85.44;100406.97;1626177;86;25840;-79
2021/11/20 00:35:39;;;;;;;7.53;2.00;;;;;;;11.87;85.64;100424.74;1616608;86;26510;-79
2021/11/20 00:38:09;;;;;;;5.25;1.72;;;;;;;11.88;85.69;100427.72;1591799;86;25753;-79
2021/11/20 00:40:41;;;;;;;3.85;1.80;;;;;;;11.89;85.27;100436.91;1648425;86;27286;-79
2021/11/20 00:43:09;;;;;;;5.17;1.50;;;;;;;11.90;85.27;100436.41;1646195;86;25806;-79
2021/11/20 00:45:38;;;;;;;4.12;1.95;;;;;;;11.91;84.87;100434.05;1653217;85;26568;-80
2021/11/20 00:48:06;;;;;;;2.77;1.60;;;;;;;11.91;84.85;100430.83;1610836;86;26128;-79
2021/11/20 00:50:37;;;;;;;4.37;2.08;;;;;;;11.93;84.23;100434.67;1629909;86;26190;-79
2021/11/20 00:53:04;;;;;;;5.75;1.90;;;;;;;11.95;84.06;100436.64;1641711;85;29315;-79
2021/11/20 00:55:31;;;;;;;4.47;1.65;;;;;;;11.96;84.32;100449.02;1625632;86;25905;-79
2021/11/20 00:58:00;;;;;;;7.05;1.90;;;;;;;11.96;84.42;100452.54;1568769;87;26092;-79
2021/11/20 01:00:34;;;;;;;6.25;1.45;;;;;;;11.96;84.34;100456.56;1632789;87;26579;-78
2021/11/20 01:03:03;;;;;;;5.30;2.25;;;;;;;11.97;83.65;100473.00;1633357;87;25852;-79
2021/11/20 01:05:32;;;;;;;6.42;1.60;;;;;;;11.99;83.64;100464.74;1590032;87;27588;-79
2021/11/20 01:08:02;;;;;;;7.60;2.85;;;;;;;12.00;83.37;100456.98;1589097;87;26745;-79
2021/11/20 01:10:34;;;;;;;3.40;1.30;;;;;;;12.01;82.76;100457.31;1632629;87;25852;-79
2021/11/20 01:13:02;;;;;;;3.40;1.30;;;;;;;12.02;82.31;100465.16;1632970;87;26579;-80
2021/11/20 01:15:40;;;;;;;5.50;2.25;;;;;;;12.02;82.17;100461.64;1589771;87;25790;-79
2021/11/20 01:18:09;;;;;;;5.12;1.80;;;;;;;12.03;82.12;100461.97;1617481;85;28077;-79
2021/11/20 01:20:39;;;;;;;5.90;1.80;;;;;;;12.04;81.98;100455.05;1655104;85;25526;-79
2021/11/20 01:23:07;;;;;;;6.80;1.92;;;;;;;12.05;82.22;100449.17;1655650;85;25786;-79
2021/11/20 01:25:40;;;;;;;5.22;1.75;;;;;;;12.06;81.69;100444.13;1619757;86;26485;-80
2021/11/20 01:28:19;;;;;;;2.83;1.50;;;;;;;12.07;82.22;100443.92;1583971;88;25344;-78
2021/11/20 01:30:49;;;;;;;3.90;1.35;;;;;;;12.06;81.90;100448.97;1635872;86;27509;-79
2021/11/20 01:33:19;;;;;;;3.75;1.47;;;;;;;12.06;81.66;100448.16;1645018;86;25847;-80
2021/11/20 01:35:47;;;;;;;6.12;1.60;;;;;;;12.08;81.50;100432.68;1635820;86;26629;-79
2021/11/20 01:38:16;;;;;;;3.67;1.37;;;;;;;12.09;81.77;100445.89;1635899;86;25802;-79
2021/11/20 01:40:46;;;;;;;5.10;1.90;;;;;;;12.10;81.18;100436.80;1661283;85;25838;-79
2021/11/20 01:43:15;;;;;;;6.72;1.47;;;;;;;12.10;81.44;100446.19;1647182;86;27455;-80
2021/11/20 01:46:02;;;;;;;4.78;1.50;;;;;;;12.11;81.25;100447.03;1617830;86;26583;-79
2021/11/20 01:48:54;;;;;;;8.98;2.33;;;;;;;12.12;81.22;100439.30;1601666;86;26066;-79
2021/11/20 01:51:32;;;;;;;2.85;1.47;;;;;;;12.13;80.81;100450.34;1657186;86;25802;-79
2021/11/20 01:54:21;;;;;;;6.58;1.55;;;;;;;12.14;81.03;100449.33;1655615;85;25849;-79
2021/11/20 01:57:18;;;;;;;6.87;1.82;;;;;;;12.15;80.87;100443.74;1646167;86;27478;-79
2021/11/20 02:00:07;;;;;;;7.00;1.95;;;;;;;12.13;80.46;100436.41;1603196;85;26522;-79
2021/11/20 02:02:55;;;;;;;;;;;;;;;12.13;80.54;100441.78;1651237;85;25857;-79
2021/11/20 02:06:01;;;;;;;5.90;1.87;;;;;;;12.13;80.50;100440.44;1667347;85;35534;-79
2021/11/20 02:08:56;;;;;;;8.23;1.72;;;;;;;12.11;80.46;100434.44;1657094;86;26538;-80
2021/11/20 02:11:45;;;;;;;4.33;1.57;;;;;;;12.11;80.34;100439.81;1625679;86;27451;-79
2021/11/20 02:14:16;;;;;;;8.95;2.00;;;;;;;12.13;80.79;100468.63;1626515;86;25851;-79
2021/11/20 02:16:58;;;;;;;7.45;1.75;;;;;;;12.14;80.71;100456.03;1629576;86;25738;-79
2021/11/20 02:19:34;;;;;;;5.58;1.70;;;;;;;12.15;80.76;100452.30;1629170;86;26473;-79
2021/11/20 02:22:28;;;;;;;6.75;2.17;;;;;;;12.13;80.59;100449.83;1592925;88;25884;-79
2021/11/20 02:24:54;;;;;;;8.45;3.20;;;;;;;12.13;80.31;100464.59;1628158;86;28161;-79
2021/11/20 02:27:26;;;;;;;5.60;1.62;;;;;;;12.13;79.89;100449.83;1623657;86;25475;-79
2021/11/20 02:30:31;;;;;;;8.78;1.82;;;;;;;12.14;80.15;100447.98;1621088;86;25988;-79
2021/11/20 02:33:06;;;;;;;3.42;1.47;;;;;;;12.13;80.31;100464.59;1630445;86;25773;-79
2021/11/20 02:35:48;;;;;;;5.95;1.75;;;;;;;12.12;79.59;100457.59;1656721;86;25819;-79
2021/11/20 02:38:21;;;;;;;5.55;1.72;;;;;;;12.11;80.06;100440.31;1655617;85;27469;-79
2021/11/20 02:40:49;;;;;;;5.33;1.70;;;;;;;12.10;80.46;100448.88;1641879;85;25360;-79
2021/11/20 02:43:17;;;;;;;4.58;1.30;;;;;;;12.09;80.19;100456.63;1622376;85;26796;-79
2021/11/20 02:45:58;;;;;;;7.75;2.02;;;;;;;12.08;80.32;100444.76;1645989;86;26473;-79
2021/11/20 02:48:27;;;;;;;6.20;1.57;;;;;;;12.07;80.36;100443.09;1620772;87;25753;-79
2021/11/20 02:50:59;;;;;;;6.62;1.60;;;;;;;12.05;80.01;100435.75;1578445;85;27459;-78
2021/11/20 02:53:40;;;;;;;5.72;1.82;;;;;;;12.02;79.96;100434.80;1641659;85;25811;-79
2021/11/20 02:56:13;;;;;;;6.35;1.60;;;;;;;12.00;80.12;100454.30;1615806;86;25370;-79
2021/11/20 02:58:41;;;;;;;8.05;1.92;;;;;;;11.97;80.00;100443.98;1657348;86;25790;-80
2021/11/20 03:01:20;;;;;;;8.03;1.98;;;;;;;11.94;79.88;100443.86;1600345;86;26019;-79
2021/11/20 03:03:48;;;;;;;8.10;1.95;;;;;;;11.93;79.96;100453.47;1656959;86;28714;-78
2021/11/20 03:06:16;;;;;;;8.08;1.92;;;;;;;11.90;79.88;100460.05;1632489;86;25863;-79
2021/11/20 03:08:43;;;;;;;8.78;1.90;;;;;;;11.90;79.97;100451.16;1657268;86;25828;-79
2021/11/20 03:11:13;;;;;;;8.18;1.85;;;;;;;11.87;79.99;100458.29;1632071;86;25697;-79
2021/11/20 03:13:47;;;;;;;10.00;2.83;;;;;;;11.83;79.89;100455.66;1622451;86;25877;-79
2021/11/20 03:16:16;;;;;;;6.92;1.30;;;;;;;11.79;80.13;100457.08;1653193;86;27523;-78
2021/11/20 03:18:43;;;;;;;9.63;2.67;;;;;;;11.79;79.69;100469.16;1657198;86;26491;-79
2021/11/20 03:21:14;;;;;;;6.40;1.65;;;;;;;11.77;80.14;100475.24;1613202;86;25885;-80
2021/11/20 03:23:48;;;;;;;10.95;2.00;;;;;;;11.77;80.36;100465.84;1608774;87;25877;-80
2021/11/20 03:26:16;;;;;;;7.10;1.60;;;;;;;11.76;80.09;100473.60;1606198;87;26687;-79
2021/11/20 03:28:43;;;;;;;4.60;1.37;;;;;;;11.75;80.20;100482.16;1618837;87;28181;-79
2021/11/20 03:31:10;;;;;;;6.12;1.45;;;;;;;11.74;80.31;100489.07;1571596;88;25904;-79
2021/11/20 03:33:38;;;;;;;7.87;2.45;;;;;;;11.72;80.22;100479.86;1583240;87;25847;-79
2021/11/20 03:36:08;;;;;;;6.53;1.42;;;;;;;11.72;80.19;100497.83;1573161;88;25812;-79
2021/11/20 03:38:35;;;;;;;4.60;1.80;;;;;;;11.69;79.69;100474.90;1630246;86;25787;-79
2021/11/20 03:41:05;;;;;;;6.33;1.42;;;;;;;11.69;79.48;100492.84;1572946;87;28371;-79
2021/11/20 03:43:33;;;;;;;5.60;1.35;;;;;;;11.69;79.42;100503.58;1595520;87;25766;-79
2021/11/20 03:46:01;;;;;;;9.03;2.08;;;;;;;11.69;79.33;100504.41;1593278;88;26502;-79
2021/11/20 03:48:29;;;;;;;6.15;1.67;;;;;;;11.69;79.20;100500.89;1618974;88;25860;-79
2021/11/20 03:50:56;;;;;;;8.40;1.67;;;;;;;11.70;79.58;100506.59;1571522;88;25825;-79
2021/11/20 03:53:23;;;;;;;4.58;1.25;;;;;;;11.67;79.43;100513.68;1583172;87;28258;-79
2021/11/20 03:55:52;;;;;;;9.38;1.75;;;;;;;11.66;79.07;100508.78;1593404;88;26191;-79
2021/11/20 03:58:21;;;;;;;3.72;1.30;;;;;;;11.63;79.52;100514.56;1618652;88;25911;-79
2021/11/20 04:00:59;;;;;;;4.83;1.40;;;;;;;11.63;79.63;100511.87;1573058;88;26446;-79
2021/11/20 04:03:29;;;;;;;5.30;1.37;;;;;;;11.60;79.70;100498.84;1606708;87;25877;-79
2021/11/20 04:05:58;;;;;;;6.28;1.47;;;;;;;11.58;79.50;100513.80;1593354;87;28245;-79
2021/11/20 04:08:26;;;;;;;4.70;1.37;;;;;;;11.56;79.57;100519.04;1614296;88;25934;-78
2021/11/20 04:10:59;;;;;;;7.30;1.70;;;;;;;11.53;78.78;100526.13;1573467;88;26425;-79
2021/11/20 04:13:27;;;;;;;6.03;1.37;;;;;;;11.51;79.17;100533.53;1583835;87;25915;-79
2021/11/20 04:15:56;;;;;;;7.40;1.47;;;;;;;11.48;79.23;100543.33;1593224;88;25788;-78
2021/11/20 04:18:23;;;;;;;4.87;1.37;;;;;;;11.42;79.52;100551.63;1618852;88;27601;-78
2021/11/20 04:20:51;;;;;;;9.15;1.40;;;;;;;11.39;79.66;100552.03;1583972;87;25896;-78
2021/11/20 04:23:18;;;;;;;5.72;1.65;;;;;;;11.37;79.68;100550.05;1621876;87;25798;-79
2021/11/20 04:25:45;;;;;;;5.45;1.17;;;;;;;11.34;79.22;100557.62;1636862;86;25857;-78
2021/11/20 04:28:12;;;;;;;5.90;1.67;;;;;;;11.31;79.35;100558.84;1583161;86;25922;-79
2021/11/20 04:30:42;;;;;;;11.68;2.37;;;;;;;11.28;79.08;100561.92;1636611;86;27961;-79
2021/11/20 04:33:12;;;;;;;6.58;1.77;;;;;;;11.26;79.62;100558.61;1659154;85;25888;-79
2021/11/20 04:35:40;;;;;;;9.68;2.05;;;;;;;11.23;79.30;100557.63;1636812;86;26033;-79
2021/11/20 04:38:10;;;;;;;7.40;1.62;;;;;;;11.20;79.73;100550.50;1635614;86;44273;-78
2021/11/20 04:40:40;;;;;;;7.12;2.08;;;;;;;11.18;79.67;100544.50;1645563;86;25953;-79
2021/11/20 04:43:08;;;;;;;8.95;1.77;;;;;;;11.17;79.76;100548.19;1612519;85;27620;-79
2021/11/20 04:45:37;;;;;;;7.42;1.90;;;;;;;11.15;79.97;100558.27;1632604;85;25559;-78
2021/11/20 04:48:07;;;;;;;8.65;1.55;;;;;;;11.13;79.68;100561.66;1643892;86;25852;-79
2021/11/20 04:50:39;;;;;;;9.25;1.60;;;;;;;11.11;79.87;100563.20;1638096;86;26619;-78
2021/11/20 04:53:06;;;;;;;7.00;1.90;;;;;;;11.09;79.24;100569.27;1615647;85;25397;-78
2021/11/20 04:55:35;;;;;;;7.33;2.00;;;;;;;11.05;78.98;100567.15;1601061;86;28234;-79
2021/11/20 04:58:03;;;;;;;8.28;2.12;;;;;;;11.02;78.78;100566.17;1616948;87;26488;-78
2021/11/20 05:00:39;;;;;;;7.87;2.67;;;;;;;11.03;78.79;100579.91;1627508;87;25524;-79
2021/11/20 05:03:07;;;;;;;5.97;1.87;;;;;;;11.00;78.75;100575.76;1648605;86;25988;-79
2021/11/20 05:05:40;;;;;;;5.17;1.13;;;;;;;10.98;78.54;100572.44;1606305;87;25996;-79
2021/11/20 05:08:08;;;;;;;7.60;1.60;;;;;;;10.97;78.43;100578.80;1653897;85;28203;-78
2021/11/20 05:10:38;;;;;;;4.70;1.37;;;;;;;10.95;78.93;100573.34;1614064;85;26356;-78
2021/11/20 05:13:06;;;;;;;9.55;2.00;;;;;;;10.92;78.90;100569.19;1601031;86;26542;-78
2021/11/20 05:15:36;;;;;;;6.60;2.08;;;;;;;10.88;78.54;100575.41;1631549;85;26641;-79
2021/11/20 05:18:04;;;;;;;7.90;2.00;;;;;;;10.86;78.73;100582.00;1635333;85;25852;-78
2021/11/20 05:20:46;;;;;;;4.72;1.40;;;;;;;10.84;78.91;100589.41;1590866;85;27554;-79
2021/11/20 05:23:14;;;;;;;11.50;1.80;;;;;;;10.82;78.99;100604.31;1602309;86;26512;-79
2021/11/20 05:25:44;;;;;;;5.67;1.62;;;;;;;10.81;78.80;100601.83;1627562;86;25720;-78
2021/11/20 05:28:13;;;;;;;9.10;2.05;;;;;;;10.80;77.89;100608.19;1662428;86;25811;-78
2021/11/20 05:30:44;;;;;;;7.73;1.40;;;;;;;10.77;78.57;100605.40;1655673;85;25851;-79
2021/11/20 05:33:32;;;;;;;4.45;1.30;;;;;;;10.77;78.57;100605.40;1617054;86;27660;-79
2021/11/20 05:36:01;;;;;;;6.35;1.80;;;;;;;10.76;78.26;100622.98;1613745;86;25390;-79
2021/11/20 05:38:29;;;;;;;6.75;1.60;;;;;;;10.73;77.54;100625.52;1638777;86;25905;-79
2021/11/20 05:40:57;;;;;;;7.40;2.10;;;;;;;10.73;77.50;100620.70;1614304;86;25682;-79
2021/11/20 05:43:27;;;;;;;10.48;1.70;;;;;;;10.72;77.53;100622.53;1636479;86;25816;-79
2021/11/20 05:46:01;;;;;;;8.65;1.55;;;;;;;10.69;77.77;100625.58;1620711;86;27179;-79
2021/11/20 05:48:28;;;;;;;4.58;1.50;;;;;;;10.67;77.34;100624.13;1653796;85;25731;-78
2021/11/20 05:50:57;;;;;;;8.68;1.77;;;;;;;10.61;77.45;100624.84;1654014;85;25920;-78
2021/11/20 05:53:26;;;;;;;5.37;1.55;;;;;;;10.57;76.96;100642.31;1609272;85;25873;-78
2021/11/20 05:55:56;;;;;;;7.28;1.85;;;;;;;10.55;76.81;100637.14;1627673;86;25920;-79
2021/11/20 05:58:26;;;;;;;9.03;2.05;;;;;;;10.56;76.62;100633.97;1651472;85;27588;-80
2021/11/20 06:01:00;;;;;;;6.83;1.52;;;;;;;10.54;76.67;100642.16;1636933;85;25937;-77
2021/11/20 06:03:28;;;;;;;5.40;1.72;;;;;;;10.53;76.97;100655.25;1644573;86;25970;-79
2021/11/20 06:05:56;;;;;;;4.95;1.22;;;;;;;10.53;77.03;100663.78;1653773;86;25934;-79
2021/11/20 06:08:24;;;;;;;7.42;1.57;;;;;;;10.49;77.19;100664.67;1653247;85;25848;-79
2021/11/20 06:10:54;;;;;;;10.48;1.77;;;;;;;10.50;77.62;100669.53;1629011;86;28360;-79
2021/11/20 06:13:21;;;;;;;4.87;1.67;;;;;;;10.49;77.25;100671.87;1632558;86;25771;-78
2021/11/20 06:16:00;;;;;;;11.43;2.83;;;;;;;10.47;77.23;100668.55;1612835;86;25652;-79
2021/11/20 06:18:27;;;;;;;7.45;2.12;;;;;;;10.47;77.26;100676.58;1630238;86;26472;-79
2021/11/20 06:20:55;;;;;;;9.53;1.82;;;;;;;10.45;77.61;100682.13;1634392;86;25962;-79
2021/11/20 06:23:26;;;;;;;12.30;1.70;;;;;;;10.44;77.41;100678.27;1656961;86;28265;-78
2021/11/20 06:25:56;;;;;;;13.53;2.45;;;;;;;10.41;77.48;100698.24;1557510;88;25924;-80
2021/11/20 06:28:24;;;;;;;14.03;1.67;;;;;;;10.41;77.34;100696.06;1585424;87;26644;-78
2021/11/20 06:30:52;;;;;;;5.95;1.42;;;;;;;10.40;77.45;100686.35;1618556;87;26536;-78
2021/11/20 06:33:19;;;;;;;8.95;2.20;;;;;;;10.39;77.36;100691.41;1618931;87;26649;-78
2021/11/20 06:35:47;;;;;;;8.28;2.22;;;;;;;10.38;77.21;100695.08;1594927;86;27485;-78
2021/11/20 06:38:20;;;;;;;10.58;2.47;;;;;;;10.38;77.21;100706.62;1615604;86;25870;-78
2021/11/20 06:40:51;;;;;;;12.93;2.12;;;;;;;10.38;77.09;100715.16;1648610;86;25849;-78
2021/11/20 06:43:22;;;;;;;9.65;2.37;;;;;;;10.37;77.08;100712.98;1650370;86;25750;-78
2021/11/20 06:45:54;;;;;;;10.25;1.70;;;;;;;10.36;77.12;100712.67;1648911;86;25324;-78
2021/11/20 06:48:22;;;;;;;10.28;1.90;;;;;;;10.34;76.73;100713.87;1594998;86;28174;-78
2021/11/20 06:50:51;;;;;;;10.13;2.33;;;;;;;10.32;77.13;100725.27;1647600;86;25711;-79
2021/11/20 06:53:23;;;;;;;8.00;1.72;;;;;;;10.33;77.35;100726.95;1615408;86;25450;-78
2021/11/20 06:56:14;;;;;;;11.63;2.25;;;;;;;10.33;77.51;100730.96;1616394;86;25961;-79
2021/11/20 07:01:46;;;;;;;12.05;2.45;;;;;;;10.32;76.77;100726.11;1657217;86;27483;-80
2021/11/20 07:04:18;;;;;;;11.10;2.25;;;;;;;10.34;77.33;100744.66;1631986;86;26481;-79
2021/11/20 07:06:56;;;;;;;10.23;1.92;;;;;;;10.33;77.03;100735.78;1644888;86;25835;-82
2021/11/20 07:09:24;;;;;;;8.80;1.70;;;;;;;10.35;77.25;100748.48;1595508;87;25905;-80
2021/11/20 07:11:51;;;;;;;5.80;2.40;;;;;;;10.35;76.83;100748.48;1630449;87;25766;-79
2021/11/20 07:14:19;;;;;;;7.22;1.85;;;;;;;10.37;76.84;100758.50;1630542;87;27536;-83
2021/11/20 07:16:47;;;;;;;7.03;1.98;;;;;;;10.38;77.14;100760.19;1627782;86;25985;-79
2021/11/20 07:19:14;;;;;;;5.85;1.47;;;;;;;10.39;77.24;100757.81;1595244;87;25883;-80
2021/11/20 07:21:50;;;;;;;12.60;1.90;;;;;;;10.40;77.21;100751.95;1630633;87;26460;-80
2021/11/20 07:24:31;;;;;;;;;;;;;;;10.42;77.55;100759.30;1641189;86;26205;-80
2021/11/20 07:27:00;;;;;;;15.98;2.95;;;;;;;10.41;77.11;100758.99;1642565;86;28193;-79
2021/11/20 07:29:27;;;;;;;10.68;1.92;;;;;;;;;;1626109;86;25815;-80
2021/11/20 07:32:02;;;;;;;12.93;2.42;;;;;;;10.43;77.04;100741.73;1665149;85;25764;-80
2021/11/20 07:34:29;;;;;;;8.85;2.35;;;;;;;10.45;76.98;100734.34;1642376;86;25830;-80
2021/11/20 07:36:58;;;;;;;10.05;1.90;;;;;;;10.47;76.42;100730.14;1623864;86;26036;-79
2021/11/20 07:39:25;;;;;;;13.13;3.62;;;;;;;10.48;77.19;100728.61;1661420;86;28289;-79
2021/11/20 07:41:52;;;;;;;10.40;2.30;;;;;;;10.52;77.01;100727.76;1654025;86;25751;-80
2021/11/20 07:44:21;;;;;;;10.98;1.70;;;;;;;10.52;76.99;100735.26;1606501;87;26601;-80
2021/11/20 07:46:48;;;;;;;9.35;2.87;;;;;;;10.55;77.06;100748.30;1601108;87;25840;-79
2021/11/20 07:49:16;;;;;;;9.95;1.77;;;;;;;10.56;76.92;100748.61;1647131;87;25968;-80
2021/11/20 07:51:45;;;;;;;14.53;2.87;;;;;;;10.58;76.32;100741.25;1647316;85;28090;-80
2021/11/20 07:54:13;;;;;;;12.68;1.95;;;;;;;10.59;76.05;100740.22;1601733;87;25865;-80
2021/11/20 07:56:57;;;;;;;9.28;1.75;;;;;;;10.61;76.29;100752.92;1603580;87;26554;-79
2021/11/20 07:59:25;;;;;;;7.17;1.95;;;;;;;10.62;76.16;100750.58;1649755;85;25942;-81
2021/11/20 08:01:53;;;;;;;9.40;1.87;;;;;;;10.65;76.41;100752.88;1644332;85;26071;-80
2021/11/20 08:04:22;;;;;;;11.90;3.30;;;;;;;10.68;76.54;100762.39;1619417;86;28284;-83
2021/11/20 08:06:51;;;;;;;13.62;2.35;;;;;;;10.70;76.42;100763.88;1600452;86;25827;-79
2021/11/20 08:09:23;;;;;;;9.75;1.80;;;;;;;10.71;76.17;100766.06;1638476;86;25900;-84
2021/11/20 08:12:00;;;;;;;11.18;2.72;;;;;;;10.71;75.59;100764.72;1639681;85;25845;-79
2021/11/20 08:14:46;;;;;;;11.75;2.30;;;;;;;10.73;75.67;100766.71;1629691;86;25878;-82
2021/11/20 08:17:17;;;;;;;12.10;2.00;;;;;;;10.75;76.11;100778.91;1611112;86;28339;-82
2021/11/20 08:19:53;;;;;;;8.60;1.67;;;;;;;10.78;76.17;100784.38;1614528;85;26004;-81
2021/11/20 08:22:22;;;;;;;10.30;1.60;;;;;;;10.77;75.34;100788.94;1646400;86;25976;-79
2021/11/20 08:24:50;;;;;;;7.95;1.87;;;;;;;10.77;76.08;100786.76;1621442;85;25858;-80
2021/11/20 08:27:17;;;;;;;8.33;2.22;;;;;;;10.76;75.19;100779.72;1612162;87;25942;-79
2021/11/20 08:29:52;;;;;;;9.15;1.92;;;;;;;10.76;75.69;100785.08;1641386;85;28455;-80
2021/11/20 08:32:22;;;;;;;12.65;2.40;;;;;;;10.75;75.76;100790.13;1664643;86;25827;-79
2021/11/20 08:34:50;;;;;;;10.03;2.58;;;;;;;10.77;76.26;100803.67;1627738;87;33825;-79
2021/11/20 08:37:30;;;;;;;12.05;2.87;;;;;;;10.81;75.67;100810.33;1615435;86;25893;-79
2021/11/20 08:39:59;;;;;;;8.03;2.47;;;;;;;10.82;76.13;100811.98;1662167;85;25701;-80
2021/11/20 08:42:27;;;;;;;10.63;2.22;;;;;;;10.83;75.66;100817.67;1627579;87;28300;-81
2021/11/20 08:44:54;;;;;;;10.30;2.92;;;;;;;10.85;75.53;100826.86;1640617;86;25916;-81
2021/11/20 08:47:24;;;;;;;10.78;2.37;;;;;;;10.88;75.73;100832.37;1623801;87;26028;-81
2021/11/20 08:49:51;;;;;;;9.80;2.22;;;;;;;10.89;75.71;100837.53;1616096;87;26617;-81
2021/11/20 08:52:18;;;;;;;9.45;2.17;;;;;;;10.93;76.11;100829.45;1645958;85;25290;-81
2021/11/20 08:54:47;;;;;;;10.93;1.90;;;;;;;10.94;75.48;100831.13;1598416;86;27574;-81
2021/11/20 08:57:14;;;;;;;11.68;2.58;;;;;;;10.99;75.93;100838.09;1602293;86;26405;-81
2021/11/20 08:59:42;;;;;;;6.90;1.67;;;;;;;11.02;75.83;100832.88;1619243;88;26072;-85
2021/11/20 09:02:36;;;;;;;9.50;2.67;;;;;;;11.06;75.24;100834.17;1618107;88;25906;-84
2021/11/20 09:05:19;;;;;;;10.85;2.58;;;;;;;11.10;75.53;100824.77;1612037;85;26173;-84
2021/11/20 09:07:57;;;;;;;7.15;1.85;;;;;;;11.12;74.97;100824.08;1594742;87;27417;-83
2021/11/20 09:10:32;;;;;;;7.67;2.27;;;;;;;11.15;75.27;100829.05;1644465;85;25796;-85
2021/11/20 09:13:17;;;;;;;9.95;2.35;;;;;;;11.20;75.26;100822.64;1638097;86;25962;-80
2021/11/20 09:15:59;;;;;;;8.33;2.30;;;;;;;11.21;75.14;100811.72;1635639;86;25835;-80
2021/11/20 09:18:32;;;;;;;9.15;2.27;;;;;;;11.22;74.24;100803.17;1631185;86;25863;-80
2021/11/20 09:21:01;;;;;;;9.50;2.77;;;;;;;11.25;74.64;100801.44;1639917;85;27644;-81
2021/11/20 09:23:39;;;;;;;9.25;2.22;;;;;;;11.24;73.58;100801.97;1525818;93;26393;-80
2021/11/20 09:26:08;;;;;;;9.20;2.27;;;;;;;11.24;73.84;100803.31;1610092;86;25649;-80
2021/11/20 09:28:36;;;;;;;8.30;2.50;;;;;;;11.27;74.44;100805.61;1563919;86;26729;-80
2021/11/20 09:31:07;;;;;;;10.00;2.12;;;;;;;11.29;74.17;100806.25;1640192;85;25915;-80
2021/11/20 09:33:36;;;;;;;14.43;3.22;;;;;;;11.35;74.22;100808.21;1634858;87;27634;-80
2021/11/20 09:36:05;;;;;;;10.40;2.87;;;;;;;11.39;74.56;100792.06;1594780;85;25852;-80
2021/11/20 09:38:46;;;;;;;9.13;2.52;;;;;;;11.42;73.71;100793.02;1641347;86;26684;-80
2021/11/20 09:41:18;;;;;;;7.90;2.25;;;;;;;11.42;73.12;100780.10;1637761;86;25876;-80
2021/11/20 09:43:57;;;;;;;9.93;2.22;;;;;;;11.41;73.43;100786.00;1633719;86;25820;-81
2021/11/20 09:46:33;;;;;;;15.20;2.05;;;;;;;11.45;73.59;100781.08;1636240;86;27583;-80
2021/11/20 09:49:11;;;;;;;10.55;2.35;;;;;;;11.47;73.50;100780.38;1583094;88;26075;-80
2021/11/20 09:51:45;;;;;;;7.90;2.22;;;;;;;11.47;72.57;100775.86;1626049;86;26802;-80
2021/11/20 09:54:22;;;;;;;10.43;2.25;;;;;;;11.47;73.12;100780.38;1624787;86;26190;-81
2021/11/20 09:56:54;;;;;;;10.20;2.30;;;;;;;11.51;72.52;100779.83;1616984;87;25844;-81
2021/11/20 09:59:29;;;;;;;7.97;2.15;;;;;;;11.51;72.02;100780.33;1583793;86;27723;-80
2021/11/20 10:02:21;;;;;;;7.05;2.15;;;;;;;11.48;72.76;100788.77;1614220;85;25903;-81
2021/11/20 10:05:00;;;;;;;9.53;2.98;;;;;;;11.47;72.57;100784.41;1641657;85;25994;-81
2021/11/20 10:07:38;;;;;;;8.48;2.22;;;;;;;11.47;72.73;100789.27;1628274;85;25919;-81
2021/11/20 10:10:41;;;;;;;10.68;2.10;;;;;;;11.51;73.50;100785.69;1624652;85;26536;-80
2021/11/20 10:13:16;;;;;;;15.18;2.30;;;;;;;11.52;73.43;100781.50;1618173;86;27594;-86
2021/11/20 10:16:04;;;;;;;9.73;2.08;;;;;;;11.51;72.73;100789.21;1637725;85;26687;-85
2021/11/20 10:18:37;;;;;;;8.80;2.17;;;;;;;11.48;73.06;100793.59;1623061;86;25379;-87
2021/11/20 10:21:27;;;;;;;8.93;2.40;;;;;;;11.43;71.80;100785.30;1616105;87;25895;-87
2021/11/20 10:24:24;;;;;;;8.55;2.25;;;;;;;11.38;72.12;100786.86;1619863;87;25380;-84
2021/11/20 10:27:14;;;;;;;9.90;2.52;;;;;;;11.35;72.87;100786.75;1644260;87;28345;-80
2021/11/20 10:30:13;;;;;;;9.03;2.00;;;;;;;11.33;72.28;100782.59;1630410;85;25958;-80
2021/11/20 10:33:06;;;;;;;8.95;1.62;;;;;;;11.31;72.69;100786.78;1608153;86;26063;-80
2021/11/20 10:35:42;;;;;;;12.10;2.12;;;;;;;11.29;72.70;100774.06;1641322;86;25844;-80
2021/11/20 10:38:29;;;;;;;11.73;2.37;;;;;;;11.30;72.38;100786.47;1629219;87;25876;-80
2021/11/20 10:41:02;;;;;;;12.20;2.52;;;;;;;11.28;71.50;100776.45;1604607;87;28087;-80
2021/11/20 10:43:40;;;;;;;5.35;1.50;;;;;;;11.30;72.19;100784.30;1629999;85;26419;-80
2021/11/20 10:46:24;;;;;;;9.90;2.58;;;;;;;11.35;72.82;100782.73;1639675;85;26549;-80
2021/11/20 10:49:15;;;;;;;10.35;2.27;;;;;;;11.40;72.50;100774.09;1655314;85;25804;-80
2021/11/20 10:51:50;;;;;;;10.08;2.47;;;;;;;11.43;72.28;100771.89;1634143;85;25857;-80
2021/11/20 10:54:42;;;;;;;6.45;1.67;;;;;;;11.48;72.43;100781.52;1631110;85;28118;-80
2021/11/20 10:57:24;;;;;;;11.22;2.10;;;;;;;11.59;71.14;100777.02;1630503;86;25919;-86
2021/11/20 11:00:21;;;;;;;7.97;1.87;;;;;;;11.70;72.37;100776.27;1619049;87;25329;-80
2021/11/20 11:03:38;;;;;;;8.33;2.15;;;;;;;11.83;72.66;100771.84;1593202;88;25772;-83
2021/11/20 11:06:45;;;;;;;9.65;3.40;;;;;;;11.94;72.33;100768.66;1627822;85;25744;-80
2021/11/20 11:09:33;;;;;;;7.03;1.90;;;;;;;12.06;71.85;100760.41;1627199;86;27547;-79
2021/11/20 11:12:36;;;;;;;5.90;2.00;;;;;;;12.14;72.34;100758.12;1640897;86;25852;-79
2021/11/20 11:15:20;;;;;;;9.93;1.92;;;;;;;12.19;72.00;100754.32;1612905;87;25995;-79
2021/11/20 11:18:30;;;;;;;7.80;2.42;;;;;;;12.22;72.10;100750.76;1604048;87;26490;-80
2021/11/20 11:21:36;;;;;;;7.72;2.10;;;;;;;12.26;71.39;100756.56;1603760;88;26925;-79
2021/11/20 11:24:43;;;;;;;6.62;2.30;;;;;;;12.26;70.64;100757.91;1625776;88;27453;-79
2021/11/20 11:27:35;;;;;;;8.78;2.02;;;;;;;12.23;69.38;100751.59;1647764;86;26475;-79
2021/11/20 11:30:26;;;;;;;5.53;1.87;;;;;;;12.17;70.77;100758.55;1600876;89;25842;-79
2021/11/20 11:32:54;;;;;;;8.40;1.98;;;;;;;12.16;70.00;100759.59;1584726;89;26490;-82
2021/11/20 11:35:42;;;;;;;7.17;2.65;;;;;;;12.13;69.67;100753.76;1600339;88;25307;-87
2021/11/20 11:38:23;;;;;;;6.15;1.82;;;;;;;12.11;70.00;100756.64;1580940;88;27563;-83
2021/11/20 11:40:53;;;;;;;;;;;;;;;12.11;70.14;100747.75;1598302;88;25864;-80
2021/11/20 11:43:34;;;;;;;8.90;1.90;;;;;;;12.02;69.46;100739.50;1595746;88;26014;-80
2021/11/20 11:46:22;;;;;;;4.17;1.40;;;;;;;12.02;69.46;100739.50;1610014;87;26289;-79
2021/11/20 11:49:26;;;;;;;5.65;1.90;;;;;;;12.04;69.46;100753.59;1594793;88;26005;-80
2021/11/20 11:52:36;;;;;;;11.08;2.33;;;;;;;12.03;69.63;100756.78;1609837;88;27551;-80
2021/11/20 11:55:33;;;;;;;4.28;2.08;;;;;;;12.03;70.11;100754.60;1593722;88;25892;-80
2021/11/20 11:58:31;;;;;;;5.65;1.85;;;;;;;12.01;69.70;100752.63;1609431;87;25830;-80
2021/11/20 12:01:18;;;;;;;11.28;2.62;;;;;;;11.98;69.85;100754.34;1574177;88;26399;-80
2021/11/20 12:04:09;;;;;;;6.28;2.05;;;;;;;11.94;69.88;100743.16;1609802;88;25856;-80
2021/11/20 12:06:50;;;;;;;6.55;1.72;;;;;;;11.94;70.19;100748.53;1596307;88;27462;-79